createdAt,value
2022-08-12T00:01:13.600Z,20.18
2022-08-12T00:04:00.182Z,20.67
2022-08-12T00:06:47.521Z,20.51
2022-08-12T00:09:34.236Z,20.70
2022-08-12T00:12:21.559Z,20.93
2022-08-12T00:15:08.909Z,20.24
2022-08-12T00:17:55.150Z,20.19
2022-08-12T00:20:42.180Z,20.01
2022-08-12T00:23:28.607Z,19.92
2022-08-12T00:26:23.155Z,20.37
2022-08-12T00:29:12.634Z,20.30
2022-08-12T00:32:01.028Z,21.01
2022-08-12T00:34:51.939Z,20.43
2022-08-12T00:37:40.964Z,19.73
2022-08-12T00:40:29.842Z,20.72
2022-08-12T00:42:58.470Z,19.78
2022-08-12T00:45:26.511Z,20.13
2022-08-12T00:47:54.625Z,19.56
2022-08-12T00:50:23.301Z,19.81
2022-08-12T00:52:52.673Z,19.82
2022-08-12T00:55:21.542Z,19.50
2022-08-12T00:57:50.878Z,19.48
2022-08-12T01:00:24.210Z,19.68
2022-08-12T01:02:57.643Z,19.38
2022-08-12T01:05:45.363Z,19.44
2022-08-12T01:08:32.170Z,19.22
2022-08-12T01:11:18.358Z,19.68
2022-08-12T01:13:50.440Z,19.18
2022-08-12T01:16:22.809Z,19.21
2022-08-12T01:18:53.305Z,19.18
2022-08-12T01:21:26.743Z,18.93
2022-08-12T01:24:30.159Z,18.46
2022-08-12T01:27:01.509Z,18.29
2022-08-12T01:29:33.521Z,18.72
2022-08-12T01:32:08.992Z,19.09
2022-08-12T01:34:39.586Z,18.52
2022-08-12T01:37:09.452Z,19.04
2022-08-12T01:40:34.649Z,18.44
2022-08-12T01:42:32.678Z,18.51
2022-08-12T01:45:02.252Z,19.02
2022-08-12T01:47:49.988Z,19.45
2022-08-12T01:50:23.698Z,18.60
2022-08-12T01:52:54.220Z,18.36
2022-08-12T01:55:25.189Z,18.42
2022-08-12T01:58:14.484Z,18.09
2022-08-12T02:00:54.803Z,18.12
2022-08-12T02:04:08.030Z,18.09
2022-08-12T02:07:00.602Z,17.87
2022-08-12T02:10:49.541Z,17.39
2022-08-12T02:13:14.679Z,17.63
2022-08-12T02:15:49.836Z,17.40
2022-08-12T02:18:17.479Z,17.48
2022-08-12T02:21:02.299Z,17.47
2022-08-12T02:23:31.488Z,18.18
2022-08-12T02:26:04.851Z,17.91
2022-08-12T02:28:32.859Z,17.84
2022-08-12T02:31:06.570Z,17.49
2022-08-12T02:33:35.387Z,17.51
2022-08-12T02:36:05.328Z,17.39
2022-08-12T02:38:34.031Z,17.84
2022-08-12T02:41:03.901Z,17.40
2022-08-12T02:43:51.941Z,17.15
2022-08-12T02:46:28.043Z,16.47
2022-08-12T02:49:01.430Z,17.12
2022-08-12T02:51:39.321Z,17.08
2022-08-12T02:54:07.858Z,16.86
2022-08-12T02:56:37.959Z,16.71
2022-08-12T02:59:07.151Z,16.97
2022-08-12T03:01:47.753Z,16.80
2022-08-12T03:04:26.911Z,16.81
2022-08-12T03:07:05.109Z,17.09
2022-08-12T03:10:03.540Z,16.95
2022-08-12T03:12:25.212Z,16.99
2022-08-12T03:14:55.291Z,17.08
2022-08-12T03:17:30.511Z,17.07
2022-08-12T03:20:10.228Z,17.36
2022-08-12T03:22:42.425Z,17.18
2022-08-12T03:25:16.283Z,17.44
2022-08-12T03:27:49.943Z,17.29
2022-08-12T03:30:19.328Z,17.48
2022-08-12T03:32:49.019Z,16.55
2022-08-12T03:35:40.118Z,17.31
2022-08-12T03:38:16.213Z,16.12
2022-08-12T03:41:25.230Z,16.44
2022-08-12T03:44:25.716Z,16.28
2022-08-12T03:47:21.918Z,16.72
2022-08-12T03:50:09.580Z,16.41
2022-08-12T03:52:55.815Z,16.68
2022-08-12T03:55:42.489Z,16.59
2022-08-12T03:58:29.003Z,16.39
2022-08-12T04:00:58.770Z,16.57
2022-08-12T04:03:45.698Z,16.41
2022-08-12T04:06:15.009Z,16.28
2022-08-12T04:08:43.848Z,16.27
2022-08-12T04:11:32.199Z,16.38
2022-08-12T04:14:08.468Z,16.80
2022-08-12T04:16:36.639Z,16.19
2022-08-12T04:19:05.919Z,16.62
2022-08-12T04:21:34.196Z,16.68
2022-08-12T04:24:02.709Z,17.10
2022-08-12T04:26:30.999Z,17.15
2022-08-12T04:28:59.470Z,16.74
2022-08-12T04:31:37.979Z,17.20
2022-08-12T04:34:08.420Z,17.22
2022-08-12T04:36:38.700Z,16.63
2022-08-12T04:39:09.100Z,17.40
2022-08-12T04:41:38.104Z,17.60
2022-08-12T04:44:27.569Z,17.76
2022-08-12T04:46:56.207Z,18.18
2022-08-12T04:49:24.417Z,18.15
2022-08-12T04:51:53.705Z,17.48
2022-08-12T04:54:27.901Z,18.52
2022-08-12T04:57:03.262Z,18.15
2022-08-12T04:59:48.116Z,18.07
2022-08-12T05:02:21.134Z,18.95
2022-08-12T05:04:55.848Z,18.97
2022-08-12T05:07:24.429Z,19.61
2022-08-12T05:10:00.569Z,19.42
2022-08-12T05:12:34.719Z,19.89
2022-08-12T05:15:02.869Z,20.80
2022-08-12T05:17:47.149Z,21.15
2022-08-12T05:20:20.850Z,21.81
2022-08-12T05:22:53.277Z,21.78
2022-08-12T05:25:25.938Z,22.11
2022-08-12T05:27:58.741Z,22.79
2022-08-12T05:30:28.729Z,22.86
2022-08-12T05:32:59.888Z,23.10
2022-08-12T05:35:28.489Z,22.72
2022-08-12T05:38:14.889Z,23.07
2022-08-12T05:40:43.349Z,23.88
2022-08-12T05:43:11.670Z,23.30
2022-08-12T05:45:44.278Z,23.71
2022-08-12T05:48:13.469Z,24.00
2022-08-12T05:50:42.364Z,24.22
2022-08-12T05:53:10.180Z,23.49
2022-08-12T05:55:38.316Z,24.77
2022-08-12T05:58:07.896Z,24.15
2022-08-12T06:00:36.429Z,23.96
2022-08-12T06:03:06.242Z,24.63
2022-08-12T06:05:43.243Z,24.39
2022-08-12T06:08:24.180Z,25.84
2022-08-12T06:10:52.320Z,26.22
2022-08-12T06:13:27.942Z,25.79
2022-08-12T06:15:57.398Z,26.14
2022-08-12T06:18:29.654Z,25.56
2022-08-12T06:21:01.889Z,26.23
2022-08-12T06:23:30.598Z,26.94
2022-08-12T06:25:59.277Z,26.88
2022-08-12T06:28:28.251Z,27.32
2022-08-12T06:31:24.405Z,27.59
2022-08-12T06:33:59.593Z,26.54
2022-08-12T06:36:33.850Z,27.66
2022-08-12T06:39:01.988Z,27.21
2022-08-12T06:42:04.921Z,26.86
2022-08-12T06:44:36.700Z,27.30
2022-08-12T06:47:04.368Z,26.99
2022-08-12T06:49:36.874Z,27.29
2022-08-12T06:52:05.154Z,27.23
2022-08-12T06:54:33.389Z,28.13
2022-08-12T06:57:04.669Z,28.07
2022-08-12T06:59:35.691Z,28.53
2022-08-12T07:02:03.475Z,29.01
2022-08-12T07:04:37.792Z,28.68
2022-08-12T07:07:10.458Z,28.67
2022-08-12T07:10:07.088Z,28.82
2022-08-12T07:12:29.009Z,28.40
2022-08-12T07:14:58.406Z,28.63
2022-08-12T07:17:36.425Z,28.53
2022-08-12T07:20:06.810Z,27.79
2022-08-12T07:22:34.719Z,28.54
2022-08-12T07:25:21.289Z,29.19
2022-08-12T07:27:53.871Z,28.29
2022-08-12T07:30:23.262Z,28.30
2022-08-12T07:32:51.828Z,29.08
2022-08-12T07:35:20.541Z,29.46
2022-08-12T07:37:50.583Z,29.65
2022-08-12T07:40:19.421Z,28.93
2022-08-12T07:42:47.299Z,29.33
2022-08-12T07:45:15.460Z,29.98
2022-08-12T07:47:43.760Z,30.00
2022-08-12T07:50:14.050Z,28.96
2022-08-12T07:52:44.452Z,30.52
2022-08-12T07:55:13.631Z,30.28
2022-08-12T07:57:53.511Z,29.79
2022-08-12T08:00:22.034Z,31.16
2022-08-12T08:02:50.530Z,32.03
2022-08-12T08:05:19.735Z,30.49
2022-08-12T08:07:47.623Z,30.13
2022-08-12T08:10:16.821Z,30.99
2022-08-12T08:12:58.948Z,30.93
2022-08-12T08:16:00.757Z,30.45
2022-08-12T08:18:26.196Z,32.04
2022-08-12T08:20:57.099Z,30.93
2022-08-12T08:23:46.470Z,31.91
2022-08-12T08:26:16.629Z,31.92
2022-08-12T08:28:44.485Z,31.59
2022-08-12T08:31:14.494Z,32.45
2022-08-12T08:34:09.460Z,32.49
2022-08-12T08:36:30.583Z,31.26
2022-08-12T08:38:59.038Z,32.01
2022-08-12T08:42:14.156Z,31.36
2022-08-12T08:44:39.721Z,31.91
2022-08-12T08:47:09.234Z,31.88
2022-08-12T08:49:38.230Z,32.21
2022-08-12T08:52:07.722Z,31.27
2022-08-12T08:54:37.840Z,32.28
2022-08-12T08:57:08.542Z,31.77
2022-08-12T08:59:36.640Z,31.67
2022-08-12T09:02:04.779Z,32.18
2022-08-12T09:05:12.131Z,32.83
2022-08-12T09:07:51.777Z,33.89
2022-08-12T09:10:30.495Z,32.46
2022-08-12T09:13:23.218Z,32.18
2022-08-12T09:15:59.401Z,32.03
2022-08-12T09:18:33.272Z,32.21
2022-08-12T09:30:11.626Z,33.20
2022-08-12T09:32:55.969Z,32.40
2022-08-12T09:35:07.141Z,33.78
2022-08-12T09:37:58.953Z,33.35
2022-08-12T09:41:01.690Z,33.39
2022-08-12T09:43:38.019Z,32.27
2022-08-12T09:46:25.477Z,32.74
2022-08-12T09:48:56.765Z,32.46
2022-08-12T09:51:37.733Z,33.23
2022-08-12T09:54:34.191Z,34.82
2022-08-12T09:58:05.711Z,34.66
2022-08-12T10:00:17.195Z,33.14
2022-08-12T10:02:45.528Z,33.32
2022-08-12T10:05:20.565Z,33.37
2022-08-12T10:07:48.590Z,33.49
2022-08-12T10:10:24.598Z,32.57
2022-08-12T10:13:37.440Z,32.89
2022-08-12T10:16:18.767Z,33.16
2022-08-12T10:18:56.465Z,33.77
2022-08-12T10:21:37.590Z,34.59
2022-08-12T10:24:20.285Z,35.02
2022-08-12T10:27:08.066Z,35.44
2022-08-12T10:30:38.427Z,34.21
2022-08-12T10:32:44.133Z,34.69
2022-08-12T10:35:15.907Z,34.46
2022-08-12T10:38:39.228Z,34.31
2022-08-12T10:40:37.671Z,34.17
2022-08-12T10:43:24.741Z,35.01
2022-08-12T10:45:53.930Z,35.43
2022-08-12T10:48:33.924Z,33.88
2022-08-12T10:52:03.875Z,34.38
2022-08-12T10:54:00.334Z,35.10
2022-08-12T10:56:34.249Z,35.49
2022-08-12T10:59:05.510Z,35.11
2022-08-12T11:04:18.849Z,35.26
2022-08-12T11:04:41.484Z,34.68
2022-08-12T11:08:35.166Z,35.38
2022-08-12T11:10:02.823Z,34.49
2022-08-12T11:12:56.223Z,33.64
2022-08-12T11:15:32.972Z,33.30
2022-08-12T11:18:17.841Z,33.48
2022-08-12T11:20:48.559Z,33.46
2022-08-12T11:23:25.633Z,33.78
2022-08-12T11:26:07.395Z,33.74
2022-08-12T11:28:37.207Z,33.78
2022-08-12T11:31:09.930Z,32.46
2022-08-12T11:34:04.590Z,32.58
2022-08-12T11:36:30.598Z,32.63
2022-08-12T11:38:58.819Z,32.39
2022-08-12T11:41:34.895Z,31.08
2022-08-12T11:44:35.837Z,31.15
2022-08-12T11:46:54.519Z,30.87
2022-08-12T11:49:31.436Z,31.24
2022-08-12T11:52:02.147Z,31.17
2022-08-12T11:54:31.128Z,30.99
2022-08-12T11:57:02.272Z,31.35
2022-08-12T12:02:21.482Z,32.12
2022-08-12T12:04:52.654Z,32.77
2022-08-12T12:08:36.169Z,32.32
2022-08-12T12:10:14.644Z,33.13
2022-08-12T12:12:50.011Z,32.65
2022-08-12T12:15:25.424Z,32.61
2022-08-12T12:18:07.148Z,31.92
2022-08-12T12:20:35.520Z,32.14
2022-08-12T12:23:04.158Z,32.48
2022-08-12T12:25:59.485Z,32.52
2022-08-12T12:28:36.891Z,32.28
2022-08-12T12:31:15.220Z,31.50
2022-08-12T12:33:58.369Z,30.98
2022-08-12T12:36:30.193Z,30.90
2022-08-12T12:38:59.965Z,30.73
2022-08-12T12:42:41.769Z,30.81
2022-08-12T12:44:26.088Z,31.50
2022-08-12T12:47:29.250Z,31.32
2022-08-12T12:49:54.415Z,32.42
2022-08-12T12:52:26.878Z,32.60
2022-08-12T12:54:55.938Z,32.37
2022-08-12T12:57:58.810Z,32.66
2022-08-12T13:00:17.765Z,33.36
2022-08-12T13:02:55.620Z,33.38
2022-08-12T13:05:28.277Z,33.12
2022-08-12T13:08:01.260Z,33.21
2022-08-12T13:10:36.843Z,32.83
2022-08-12T13:14:06.439Z,33.24
2022-08-12T13:15:59.324Z,32.79
2022-08-12T13:18:31.637Z,32.37
2022-08-12T13:21:00.041Z,33.09
2022-08-12T13:23:36.207Z,33.75
2022-08-12T13:26:05.113Z,32.89
2022-08-12T13:28:33.043Z,33.25
2022-08-12T13:31:00.883Z,33.87
2022-08-12T13:34:28.479Z,33.74
2022-08-12T13:36:20.694Z,32.97
2022-08-12T13:38:54.325Z,32.85
2022-08-12T13:41:35.825Z,32.59
2022-08-12T13:44:06.925Z,32.35
2022-08-12T13:46:41.030Z,32.30
2022-08-12T13:49:17.452Z,32.66
2022-08-12T13:51:54.379Z,33.16
2022-08-12T13:54:22.606Z,32.92
2022-08-12T13:56:51.523Z,33.34
2022-08-12T13:59:24.840Z,33.10
2022-08-12T14:01:56.655Z,32.94
2022-08-12T14:04:25.205Z,33.38
2022-08-12T14:06:55.558Z,32.71
2022-08-12T14:09:23.465Z,33.29
2022-08-12T14:11:59.306Z,33.26
2022-08-12T14:14:31.317Z,32.66
2022-08-12T14:17:08.287Z,31.46
2022-08-12T14:19:48.562Z,32.34
2022-08-12T14:22:26.106Z,32.94
2022-08-12T14:24:54.376Z,32.69
2022-08-12T14:28:03.591Z,32.27
2022-08-12T14:30:29.082Z,32.57
2022-08-12T14:33:03.410Z,31.79
2022-08-12T14:35:41.006Z,31.07
2022-08-12T14:38:24.216Z,31.54
2022-08-12T14:41:00.178Z,31.48
2022-08-12T14:43:58.990Z,30.94
2022-08-12T14:46:23.538Z,32.19
2022-08-12T14:48:53.329Z,32.00
2022-08-12T14:52:44.082Z,31.84
2022-08-12T14:57:20.525Z,32.26
2022-08-12T15:00:07.467Z,32.48
2022-08-12T15:02:38.336Z,32.08
2022-08-12T15:05:08.270Z,32.47
2022-08-12T15:07:48.846Z,32.03
2022-08-12T15:10:25.119Z,31.83
2022-08-12T15:13:07.392Z,31.66
2022-08-12T15:15:43.991Z,31.20
2022-08-12T15:18:21.609Z,31.50
2022-08-12T15:20:55.599Z,31.68
2022-08-12T15:23:29.241Z,31.91
2022-08-12T15:26:11.582Z,31.45
2022-08-12T15:28:53.880Z,31.46
2022-08-12T15:31:28.332Z,31.51
2022-08-12T15:34:12.168Z,31.79
2022-08-12T15:36:54.262Z,31.91
2022-08-12T15:39:23.170Z,31.72
2022-08-12T15:41:55.477Z,31.71
2022-08-12T15:44:38.337Z,31.47
2022-08-12T15:47:10.827Z,31.36
2022-08-12T15:49:54.418Z,31.60
2022-08-12T15:52:29.210Z,31.50
2022-08-12T15:55:06.012Z,31.38
2022-08-12T15:57:34.945Z,31.21
2022-08-12T16:00:07.260Z,31.29
2022-08-12T16:02:47.341Z,30.90
2022-08-12T16:06:12.799Z,31.40
2022-08-12T16:08:19.762Z,30.86
2022-08-12T16:10:53.284Z,30.86
2022-08-12T16:13:25.425Z,30.22
2022-08-12T16:16:22.704Z,30.08
2022-08-12T16:18:56.438Z,30.21
2022-08-12T16:21:51.622Z,30.41
2022-08-12T16:24:14.455Z,29.97
2022-08-12T16:26:45.210Z,30.97
2022-08-12T16:29:24.666Z,30.83
2022-08-12T16:31:54.515Z,30.58
2022-08-12T16:34:25.666Z,30.39
2022-08-12T16:37:13.833Z,29.90
2022-08-12T16:39:59.779Z,29.99
2022-08-12T16:42:28.949Z,30.15
2022-08-12T16:45:01.937Z,30.01
2022-08-12T16:47:57.639Z,29.30
2022-08-12T16:50:30.944Z,29.53
2022-08-12T16:53:02.435Z,29.36
2022-08-12T16:55:42.257Z,29.21
2022-08-12T16:58:28.510Z,29.36
2022-08-12T17:01:03.050Z,29.11
2022-08-12T17:03:36.610Z,28.94
2022-08-12T17:06:09.802Z,28.93
2022-08-12T17:08:38.683Z,28.45
2022-08-12T17:11:17.938Z,28.72
2022-08-12T17:13:53.225Z,28.62
2022-08-12T17:16:24.126Z,29.04
2022-08-12T17:18:59.588Z,29.10
2022-08-12T17:21:40.638Z,28.97
2022-08-12T17:24:21.750Z,29.07
2022-08-12T17:26:54.061Z,28.84
2022-08-12T17:29:24.188Z,28.54
2022-08-12T17:32:03.021Z,28.40
2022-08-12T17:34:52.493Z,28.65
2022-08-12T17:37:20.284Z,28.27
2022-08-12T17:40:15.396Z,28.22
2022-08-12T17:42:48.442Z,28.50
2022-08-12T17:45:20.150Z,28.51
2022-08-12T17:48:01.312Z,28.03
2022-08-12T17:50:38.149Z,27.76
2022-08-12T17:53:08.092Z,28.66
2022-08-12T17:55:47.458Z,28.44
2022-08-12T17:58:35.829Z,28.64
2022-08-12T18:01:10.931Z,28.39
2022-08-12T18:03:58.296Z,28.21
2022-08-12T18:06:32.180Z,27.49
2022-08-12T18:09:09.358Z,27.61
2022-08-12T18:12:05.070Z,27.14
2022-08-12T18:14:40.925Z,27.25
2022-08-12T18:17:10.148Z,26.81
2022-08-12T18:20:03.608Z,26.53
2022-08-12T18:22:39.409Z,26.88
2022-08-12T18:26:12.730Z,25.82
2022-08-12T18:28:12.322Z,26.02
2022-08-12T18:30:53.003Z,26.12
2022-08-12T18:33:25.558Z,25.78
2022-08-12T18:35:55.646Z,25.62
2022-08-12T18:38:25.791Z,25.23
2022-08-12T18:41:21.759Z,25.33
2022-08-12T18:43:59.833Z,24.88
2022-08-12T18:46:46.918Z,24.40
2022-08-12T18:49:23.722Z,23.81
2022-08-12T18:52:04.690Z,24.02
2022-08-12T18:54:52.880Z,24.13
2022-08-12T18:58:07.267Z,24.01
2022-08-12T19:00:21.034Z,24.04
2022-08-12T19:02:53.340Z,23.82
2022-08-12T19:05:23.711Z,23.31
2022-08-12T19:08:12.080Z,22.99
2022-08-12T19:10:42.329Z,23.43
2022-08-12T19:13:39.600Z,23.06
2022-08-12T19:16:12.722Z,23.30
2022-08-12T19:18:44.535Z,22.75
2022-08-12T19:21:16.603Z,23.01
2022-08-12T19:24:08.888Z,22.89
2022-08-12T19:26:37.870Z,22.75
2022-08-12T19:29:08.315Z,22.45
2022-08-12T19:31:58.883Z,22.51
2022-08-12T19:38:02.602Z,22.30
2022-08-12T19:40:31.784Z,22.23
2022-08-12T19:43:17.823Z,21.36
2022-08-12T19:45:57.846Z,21.62
2022-08-12T19:48:32.836Z,22.04
2022-08-12T19:51:09.188Z,21.82
2022-08-12T19:53:57.803Z,22.02
2022-08-12T19:56:28.346Z,21.86
2022-08-12T19:59:19.148Z,21.75
2022-08-12T20:02:02.488Z,21.78
2022-08-12T20:04:39.291Z,21.68
2022-08-12T20:07:23.475Z,21.54
2022-08-12T20:09:54.173Z,21.46
2022-08-12T20:12:30.956Z,21.46
2022-08-12T20:15:05.228Z,21.46
2022-08-12T20:17:36.259Z,21.00
2022-08-12T20:20:19.112Z,21.25
2022-08-12T20:22:48.648Z,21.34
2022-08-12T20:25:18.368Z,21.15
2022-08-12T20:28:04.853Z,21.26
2022-08-12T20:30:52.446Z,20.62
2022-08-12T20:33:50.349Z,20.89
2022-08-12T20:36:41.722Z,20.89
2022-08-12T20:39:23.471Z,20.94
2022-08-12T20:41:58.804Z,20.87
2022-08-12T20:44:27.034Z,20.87
2022-08-12T20:47:18.289Z,20.80
2022-08-12T20:49:54.983Z,20.50
2022-08-12T20:52:29.118Z,19.96
2022-08-12T20:54:58.282Z,20.80
2022-08-12T20:57:37.954Z,21.05
2022-08-12T21:00:16.265Z,20.70
2022-08-12T21:02:50.038Z,20.46
2022-08-12T21:05:41.264Z,20.80
2022-08-12T21:08:27.902Z,21.03
2022-08-12T21:10:58.976Z,20.68
2022-08-12T21:13:27.463Z,20.42
2022-08-12T21:16:01.272Z,20.74
2022-08-12T21:18:30.654Z,20.16
2022-08-12T21:20:59.525Z,20.37
2022-08-12T21:23:30.888Z,20.48
2022-08-12T21:26:16.123Z,20.89
2022-08-12T21:28:58.827Z,20.97
2022-08-12T21:32:39.687Z,20.45
2022-08-12T21:34:26.228Z,20.81
2022-08-12T21:37:13.264Z,20.96
2022-08-12T21:39:56.477Z,20.62
2022-08-12T21:42:27.770Z,20.90
2022-08-12T21:45:45.778Z,20.98
2022-08-12T21:47:46.363Z,21.02
2022-08-12T21:50:14.237Z,21.05
2022-08-12T21:52:42.573Z,20.77
2022-08-12T21:55:18.404Z,20.00
2022-08-12T21:57:53.290Z,20.59
2022-08-12T22:00:33.507Z,20.45
2022-08-12T22:04:01.929Z,20.48
2022-08-12T22:06:20.279Z,20.44
2022-08-12T22:09:03.972Z,20.69
2022-08-12T22:11:42.052Z,21.13
2022-08-12T22:14:21.395Z,21.08
2022-08-12T22:16:53.632Z,21.28
2022-08-12T22:19:22.863Z,20.93
2022-08-12T22:21:53.813Z,21.26
2022-08-12T22:24:27.076Z,21.30
2022-08-12T22:27:08.042Z,21.02
2022-08-12T22:30:06.959Z,21.10
2022-08-12T22:32:38.894Z,21.32
2022-08-12T22:35:29.295Z,20.32
2022-08-12T22:38:10.774Z,21.09
2022-08-12T22:40:45.997Z,20.78
2022-08-12T22:43:35.309Z,20.71
2022-08-12T22:46:09.899Z,20.16
2022-08-12T22:48:37.659Z,20.51
2022-08-12T22:51:20.308Z,20.33
2022-08-12T22:53:53.832Z,20.60
2022-08-12T22:56:31.021Z,20.53
2022-08-12T22:59:02.861Z,19.58
2022-08-12T23:01:51.982Z,19.69
2022-08-12T23:04:27.994Z,19.88
2022-08-12T23:06:59.559Z,20.30
2022-08-12T23:09:44.747Z,20.40
2022-08-12T23:12:39.205Z,19.97
2022-08-12T23:15:09.703Z,20.41
2022-08-12T23:17:40.450Z,20.62
2022-08-12T23:20:11.068Z,21.10
2022-08-12T23:22:40.203Z,21.21
2022-08-12T23:25:18.673Z,21.84
2022-08-12T23:28:06.411Z,21.50
2022-08-12T23:31:04.579Z,21.66
2022-08-12T23:34:01.818Z,22.04
2022-08-12T23:36:31.673Z,21.55
2022-08-12T23:40:13.941Z,21.89
2022-08-12T23:42:17.867Z,21.87
2022-08-12T23:44:52.597Z,21.36
2022-08-12T23:47:23.207Z,21.72
2022-08-12T23:49:57.959Z,21.44
2022-08-12T23:52:28.532Z,21.48
2022-08-12T23:55:24.202Z,21.58
2022-08-12T23:58:20.653Z,21.81
